sensor_id;sensor_type;location;lat;lon;timestamp;temperature;humidity
2855;DHT22;1435;49.472;10.940;2022-11-15T00:02:45;8.00;99.90
2855;DHT22;1435;49.472;10.940;2022-11-15T00:07:47;8.00;99.90
2855;DHT22;1435;49.472;10.940;2022-11-15T00:12:50;8.00;99.90
2855;DHT22;1435;49.472;10.940;2022-11-15T00:17:52;8.00;99.90
2855;DHT22;1435;49.472;10.940;2022-11-15T00:22:54;8.00;99.90
2855;DHT22;1435;49.472;10.940;2022-11-15T00:27:58;8.00;99.90
2855;DHT22;1435;49.472;10.940;2022-11-15T00:33:02;8.00;99.90
2855;DHT22;1435;49.472;10.940;2022-11-15T00:38:04;8.00;99.90
2855;DHT22;1435;49.472;10.940;2022-11-15T00:43:07;8.10;99.90
2855;DHT22;1435;49.472;10.940;2022-11-15T00:48:09;8.10;99.90
2855;DHT22;1435;49.472;10.940;2022-11-15T00:53:11;8.20;99.90
2855;DHT22;1435;49.472;10.940;2022-11-15T00:58:14;8.00;99.90
2855;DHT22;1435;49.472;10.940;2022-11-15T01:03:16;8.10;99.90
2855;DHT22;1435;49.472;10.940;2022-11-15T01:08:18;8.10;99.90
2855;DHT22;1435;49.472;10.940;2022-11-15T01:13:21;8.10;99.90
2855;DHT22;1435;49.472;10.940;2022-11-15T01:18:22;8.20;99.90
2855;DHT22;1435;49.472;10.940;2022-11-15T01:23:24;8.30;99.90
2855;DHT22;1435;49.472;10.940;2022-11-15T01:28:31;8.30;99.90
2855;DHT22;1435;49.472;10.940;2022-11-15T01:33:34;8.30;99.90
2855;DHT22;1435;49.472;10.940;2022-11-15T01:38:36;8.20;99.90
2855;DHT22;1435;49.472;10.940;2022-11-15T01:43:40;8.10;99.90
2855;DHT22;1435;49.472;10.940;2022-11-15T01:48:42;8.20;99.90
2855;DHT22;1435;49.472;10.940;2022-11-15T01:53:45;8.10;99.90
2855;DHT22;1435;49.472;10.940;2022-11-15T01:58:51;8.10;99.90
2855;DHT22;1435;49.472;10.940;2022-11-15T02:03:57;8.10;99.90
2855;DHT22;1435;49.472;10.940;2022-11-15T02:09:00;8.10;99.90
2855;DHT22;1435;49.472;10.940;2022-11-15T02:14:04;8.20;99.90
2855;DHT22;1435;49.472;10.940;2022-11-15T02:19:29;8.10;99.90
2855;DHT22;1435;49.472;10.940;2022-11-15T02:24:51;8.20;99.90
2855;DHT22;1435;49.472;10.940;2022-11-15T02:30:24;8.20;99.90
2855;DHT22;1435;49.472;10.940;2022-11-15T02:35:34;8.20;99.90
2855;DHT22;1435;49.472;10.940;2022-11-15T02:40:44;8.20;99.90
2855;DHT22;1435;49.472;10.940;2022-11-15T02:45:53;8.20;99.90
2855;DHT22;1435;49.472;10.940;2022-11-15T02:50:58;8.10;99.90
2855;DHT22;1435;49.472;10.940;2022-11-15T02:56:00;8.00;99.90
2855;DHT22;1435;49.472;10.940;2022-11-15T03:01:08;8.00;99.90
2855;DHT22;1435;49.472;10.940;2022-11-15T03:06:20;7.90;99.90
2855;DHT22;1435;49.472;10.940;2022-11-15T03:11:26;7.90;99.90
2855;DHT22;1435;49.472;10.940;2022-11-15T03:16:36;7.80;99.90
2855;DHT22;1435;49.472;10.940;2022-11-15T03:21:39;7.60;99.90
2855;DHT22;1435;49.472;10.940;2022-11-15T03:26:42;7.50;99.90
2855;DHT22;1435;49.472;10.940;2022-11-15T03:31:51;7.40;99.90
2855;DHT22;1435;49.472;10.940;2022-11-15T03:36:55;7.20;99.90
2855;DHT22;1435;49.472;10.940;2022-11-15T03:42:06;7.10;99.90
2855;DHT22;1435;49.472;10.940;2022-11-15T03:47:17;7.00;99.90
2855;DHT22;1435;49.472;10.940;2022-11-15T03:52:21;6.90;99.90
2855;DHT22;1435;49.472;10.940;2022-11-15T03:57:23;6.80;99.90
2855;DHT22;1435;49.472;10.940;2022-11-15T04:02:26;6.70;99.90
2855;DHT22;1435;49.472;10.940;2022-11-15T04:07:28;6.60;99.90
2855;DHT22;1435;49.472;10.940;2022-11-15T04:12:30;6.60;99.90
2855;DHT22;1435;49.472;10.940;2022-11-15T04:17:34;6.50;99.90
2855;DHT22;1435;49.472;10.940;2022-11-15T04:22:37;6.40;99.90
2855;DHT22;1435;49.472;10.940;2022-11-15T04:27:57;6.40;99.90
2855;DHT22;1435;49.472;10.940;2022-11-15T04:33:00;6.40;99.90
2855;DHT22;1435;49.472;10.940;2022-11-15T04:38:03;6.40;99.90
2855;DHT22;1435;49.472;10.940;2022-11-15T04:43:05;6.30;99.90
2855;DHT22;1435;49.472;10.940;2022-11-15T04:48:08;6.30;99.90
2855;DHT22;1435;49.472;10.940;2022-11-15T04:53:10;6.20;99.90
2855;DHT22;1435;49.472;10.940;2022-11-15T04:58:11;6.10;99.90
2855;DHT22;1435;49.472;10.940;2022-11-15T05:03:14;6.00;99.90
2855;DHT22;1435;49.472;10.940;2022-11-15T05:08:34;5.90;99.90
2855;DHT22;1435;49.472;10.940;2022-11-15T05:13:35;5.80;99.90
2855;DHT22;1435;49.472;10.940;2022-11-15T05:18:39;5.70;99.90
2855;DHT22;1435;49.472;10.940;2022-11-15T05:23:41;5.70;99.90
2855;DHT22;1435;49.472;10.940;2022-11-15T05:28:43;5.60;99.90
2855;DHT22;1435;49.472;10.940;2022-11-15T05:33:48;5.50;99.90
2855;DHT22;1435;49.472;10.940;2022-11-15T05:38:50;5.50;99.90
2855;DHT22;1435;49.472;10.940;2022-11-15T05:43:53;5.40;99.90
2855;DHT22;1435;49.472;10.940;2022-11-15T05:48:57;5.40;99.90
2855;DHT22;1435;49.472;10.940;2022-11-15T05:54:00;5.30;99.90
2855;DHT22;1435;49.472;10.940;2022-11-15T05:59:03;5.30;99.90
2855;DHT22;1435;49.472;10.940;2022-11-15T06:04:06;5.20;99.90
2855;DHT22;1435;49.472;10.940;2022-11-15T06:09:08;5.20;99.90
2855;DHT22;1435;49.472;10.940;2022-11-15T06:14:10;5.20;99.90
2855;DHT22;1435;49.472;10.940;2022-11-15T06:19:13;5.20;99.90
2855;DHT22;1435;49.472;10.940;2022-11-15T06:24:15;5.20;99.90
2855;DHT22;1435;49.472;10.940;2022-11-15T06:29:16;5.30;99.90
2855;DHT22;1435;49.472;10.940;2022-11-15T06:34:20;5.30;99.90
2855;DHT22;1435;49.472;10.940;2022-11-15T06:39:21;5.30;99.90
2855;DHT22;1435;49.472;10.940;2022-11-15T06:44:23;5.30;99.90
2855;DHT22;1435;49.472;10.940;2022-11-15T06:49:26;5.40;99.90
2855;DHT22;1435;49.472;10.940;2022-11-15T06:54:28;5.40;99.90
2855;DHT22;1435;49.472;10.940;2022-11-15T06:59:30;5.50;99.90
2855;DHT22;1435;49.472;10.940;2022-11-15T07:04:34;5.70;99.90
2855;DHT22;1435;49.472;10.940;2022-11-15T07:09:36;5.80;99.90
2855;DHT22;1435;49.472;10.940;2022-11-15T07:14:38;5.90;99.90
2855;DHT22;1435;49.472;10.940;2022-11-15T07:19:41;6.00;99.90
2855;DHT22;1435;49.472;10.940;2022-11-15T07:24:43;6.00;99.90
2855;DHT22;1435;49.472;10.940;2022-11-15T07:29:45;6.00;99.90
2855;DHT22;1435;49.472;10.940;2022-11-15T07:34:48;6.00;99.90
2855;DHT22;1435;49.472;10.940;2022-11-15T07:39:49;6.10;99.90
2855;DHT22;1435;49.472;10.940;2022-11-15T07:44:51;6.20;99.90
2855;DHT22;1435;49.472;10.940;2022-11-15T07:49:54;6.20;99.90
2855;DHT22;1435;49.472;10.940;2022-11-15T07:54:56;6.30;99.90
2855;DHT22;1435;49.472;10.940;2022-11-15T07:59:58;6.40;99.90
2855;DHT22;1435;49.472;10.940;2022-11-15T08:05:01;6.50;99.90
2855;DHT22;1435;49.472;10.940;2022-11-15T08:10:03;6.60;99.90
2855;DHT22;1435;49.472;10.940;2022-11-15T08:15:06;6.60;99.90
2855;DHT22;1435;49.472;10.940;2022-11-15T08:20:10;6.70;99.90
2855;DHT22;1435;49.472;10.940;2022-11-15T08:25:12;6.90;99.90
2855;DHT22;1435;49.472;10.940;2022-11-15T08:30:15;7.00;99.90
2855;DHT22;1435;49.472;10.940;2022-11-15T08:35:18;7.10;99.90
2855;DHT22;1435;49.472;10.940;2022-11-15T08:40:21;7.20;99.90
2855;DHT22;1435;49.472;10.940;2022-11-15T08:45:22;7.20;99.90
2855;DHT22;1435;49.472;10.940;2022-11-15T08:50:25;7.30;99.90
2855;DHT22;1435;49.472;10.940;2022-11-15T08:55:27;7.40;99.90
2855;DHT22;1435;49.472;10.940;2022-11-15T09:00:29;7.50;99.90
2855;DHT22;1435;49.472;10.940;2022-11-15T09:05:32;7.60;99.90
2855;DHT22;1435;49.472;10.940;2022-11-15T09:10:37;7.70;99.90
2855;DHT22;1435;49.472;10.940;2022-11-15T09:15:38;7.90;99.90
2855;DHT22;1435;49.472;10.940;2022-11-15T09:20:41;8.00;99.90
2855;DHT22;1435;49.472;10.940;2022-11-15T09:25:43;8.10;99.90
2855;DHT22;1435;49.472;10.940;2022-11-15T09:30:45;8.30;99.90
2855;DHT22;1435;49.472;10.940;2022-11-15T09:35:48;8.40;99.90
2855;DHT22;1435;49.472;10.940;2022-11-15T09:40:57;8.60;99.90
2855;DHT22;1435;49.472;10.940;2022-11-15T09:46:09;8.60;99.90
2855;DHT22;1435;49.472;10.940;2022-11-15T09:51:22;8.70;99.90
2855;DHT22;1435;49.472;10.940;2022-11-15T09:56:29;8.80;99.90
2855;DHT22;1435;49.472;10.940;2022-11-15T10:01:38;8.90;99.90
2855;DHT22;1435;49.472;10.940;2022-11-15T10:06:49;9.00;99.90
2855;DHT22;1435;49.472;10.940;2022-11-15T10:11:51;9.20;99.90
2855;DHT22;1435;49.472;10.940;2022-11-15T10:22:39;9.50;99.90
2855;DHT22;1435;49.472;10.940;2022-11-15T10:27:42;9.70;99.90
2855;DHT22;1435;49.472;10.940;2022-11-15T10:32:45;9.90;99.90
2855;DHT22;1435;49.472;10.940;2022-11-15T10:37:49;10.00;99.90
2855;DHT22;1435;49.472;10.940;2022-11-15T10:43:05;10.30;99.90
2855;DHT22;1435;49.472;10.940;2022-11-15T10:48:31;10.50;99.90
2855;DHT22;1435;49.472;10.940;2022-11-15T10:53:41;10.70;99.90
2855;DHT22;1435;49.472;10.940;2022-11-15T10:58:51;10.70;99.90
2855;DHT22;1435;49.472;10.940;2022-11-15T11:03:59;10.90;99.90
2855;DHT22;1435;49.472;10.940;2022-11-15T11:09:05;11.00;99.90
2855;DHT22;1435;49.472;10.940;2022-11-15T11:14:12;11.10;99.90
2855;DHT22;1435;49.472;10.940;2022-11-15T11:19:35;11.20;99.90
2855;DHT22;1435;49.472;10.940;2022-11-15T11:24:44;11.30;99.90
2855;DHT22;1435;49.472;10.940;2022-11-15T11:30:02;11.30;99.90
2855;DHT22;1435;49.472;10.940;2022-11-15T11:35:13;11.40;99.90
2855;DHT22;1435;49.472;10.940;2022-11-15T11:40:28;11.50;99.90
2855;DHT22;1435;49.472;10.940;2022-11-15T11:45:51;11.60;99.90
2855;DHT22;1435;49.472;10.940;2022-11-15T11:51:01;11.80;99.90
2855;DHT22;1435;49.472;10.940;2022-11-15T11:56:13;11.90;99.90
2855;DHT22;1435;49.472;10.940;2022-11-15T12:01:22;12.00;99.90
2855;DHT22;1435;49.472;10.940;2022-11-15T12:06:31;12.00;99.90
2855;DHT22;1435;49.472;10.940;2022-11-15T12:11:38;12.20;99.90
2855;DHT22;1435;49.472;10.940;2022-11-15T12:16:43;12.30;99.90
2855;DHT22;1435;49.472;10.940;2022-11-15T12:21:50;12.40;99.90
2855;DHT22;1435;49.472;10.940;2022-11-15T12:27:00;12.50;99.90
2855;DHT22;1435;49.472;10.940;2022-11-15T12:32:03;12.50;99.90
2855;DHT22;1435;49.472;10.940;2022-11-15T12:43:00;12.70;99.90
2855;DHT22;1435;49.472;10.940;2022-11-15T12:53:38;12.90;99.90
2855;DHT22;1435;49.472;10.940;2022-11-15T12:58:43;13.00;99.90
2855;DHT22;1435;49.472;10.940;2022-11-15T13:04:08;13.00;99.90
2855;DHT22;1435;49.472;10.940;2022-11-15T13:14:54;13.10;99.90
2855;DHT22;1435;49.472;10.940;2022-11-15T13:20:21;13.10;99.90
2855;DHT22;1435;49.472;10.940;2022-11-15T13:25:45;13.10;99.90
2855;DHT22;1435;49.472;10.940;2022-11-15T13:30:51;13.10;99.90
2855;DHT22;1435;49.472;10.940;2022-11-15T13:35:56;13.20;99.90
2855;DHT22;1435;49.472;10.940;2022-11-15T13:40:59;13.30;99.90
2855;DHT22;1435;49.472;10.940;2022-11-15T13:46:09;13.30;99.90
2855;DHT22;1435;49.472;10.940;2022-11-15T13:51:21;13.30;99.90
2855;DHT22;1435;49.472;10.940;2022-11-15T13:56:25;13.50;99.90
2855;DHT22;1435;49.472;10.940;2022-11-15T14:01:31;13.70;99.90
2855;DHT22;1435;49.472;10.940;2022-11-15T14:06:44;14.10;99.90
2855;DHT22;1435;49.472;10.940;2022-11-15T14:11:51;14.60;99.90
2855;DHT22;1435;49.472;10.940;2022-11-15T14:16:56;15.10;99.90
2855;DHT22;1435;49.472;10.940;2022-11-15T14:22:16;15.30;99.90
2855;DHT22;1435;49.472;10.940;2022-11-15T14:27:23;15.50;99.90
2855;DHT22;1435;49.472;10.940;2022-11-15T14:32:28;15.40;99.90
2855;DHT22;1435;49.472;10.940;2022-11-15T14:37:31;15.20;99.90
2855;DHT22;1435;49.472;10.940;2022-11-15T14:42:35;15.10;99.90
2855;DHT22;1435;49.472;10.940;2022-11-15T14:47:38;14.90;99.90
2855;DHT22;1435;49.472;10.940;2022-11-15T14:52:40;14.70;99.90
2855;DHT22;1435;49.472;10.940;2022-11-15T14:57:43;14.50;99.90
2855;DHT22;1435;49.472;10.940;2022-11-15T15:02:48;14.40;99.90
2855;DHT22;1435;49.472;10.940;2022-11-15T15:07:50;14.40;99.90
2855;DHT22;1435;49.472;10.940;2022-11-15T15:12:52;14.40;99.90
2855;DHT22;1435;49.472;10.940;2022-11-15T15:17:55;14.40;99.90
2855;DHT22;1435;49.472;10.940;2022-11-15T15:22:57;14.30;99.90
2855;DHT22;1435;49.472;10.940;2022-11-15T15:27:59;14.20;99.90
2855;DHT22;1435;49.472;10.940;2022-11-15T15:33:02;14.00;99.90
2855;DHT22;1435;49.472;10.940;2022-11-15T15:38:04;13.80;99.90
2855;DHT22;1435;49.472;10.940;2022-11-15T15:43:06;13.50;99.90
2855;DHT22;1435;49.472;10.940;2022-11-15T15:48:13;13.30;99.90
2855;DHT22;1435;49.472;10.940;2022-11-15T15:53:15;13.20;99.90
2855;DHT22;1435;49.472;10.940;2022-11-15T15:58:17;13.00;99.90
2855;DHT22;1435;49.472;10.940;2022-11-15T16:03:20;12.90;99.90
2855;DHT22;1435;49.472;10.940;2022-11-15T16:08:24;12.80;99.90
2855;DHT22;1435;49.472;10.940;2022-11-15T16:13:27;12.70;99.90
2855;DHT22;1435;49.472;10.940;2022-11-15T16:18:30;12.60;99.90
2855;DHT22;1435;49.472;10.940;2022-11-15T16:23:33;12.50;99.90
2855;DHT22;1435;49.472;10.940;2022-11-15T16:28:35;12.40;99.90
2855;DHT22;1435;49.472;10.940;2022-11-15T16:33:38;12.40;99.90
2855;DHT22;1435;49.472;10.940;2022-11-15T16:38:40;12.30;99.90
2855;DHT22;1435;49.472;10.940;2022-11-15T16:43:42;12.20;99.90
2855;DHT22;1435;49.472;10.940;2022-11-15T16:48:45;12.20;99.90
2855;DHT22;1435;49.472;10.940;2022-11-15T16:53:47;12.20;99.90
2855;DHT22;1435;49.472;10.940;2022-11-15T16:58:49;12.10;99.90
2855;DHT22;1435;49.472;10.940;2022-11-15T17:03:53;12.10;99.90
2855;DHT22;1435;49.472;10.940;2022-11-15T17:08:55;12.00;99.90
2855;DHT22;1435;49.472;10.940;2022-11-15T17:13:57;12.00;99.90
2855;DHT22;1435;49.472;10.940;2022-11-15T17:19:00;11.90;99.90
2855;DHT22;1435;49.472;10.940;2022-11-15T17:24:02;11.90;99.90
2855;DHT22;1435;49.472;10.940;2022-11-15T17:29:04;11.80;99.90
2855;DHT22;1435;49.472;10.940;2022-11-15T17:34:08;11.80;99.90
2855;DHT22;1435;49.472;10.940;2022-11-15T17:39:10;11.70;99.90
2855;DHT22;1435;49.472;10.940;2022-11-15T17:44:12;11.70;99.90
2855;DHT22;1435;49.472;10.940;2022-11-15T17:49:15;11.80;99.90
2855;DHT22;1435;49.472;10.940;2022-11-15T17:54:17;11.70;99.90
2855;DHT22;1435;49.472;10.940;2022-11-15T17:59:19;11.70;99.90
2855;DHT22;1435;49.472;10.940;2022-11-15T18:04:22;11.60;99.90
2855;DHT22;1435;49.472;10.940;2022-11-15T18:09:28;11.70;99.90
2855;DHT22;1435;49.472;10.940;2022-11-15T18:14:30;11.70;99.90
2855;DHT22;1435;49.472;10.940;2022-11-15T18:19:33;11.70;99.90
2855;DHT22;1435;49.472;10.940;2022-11-15T18:24:36;11.70;99.90
2855;DHT22;1435;49.472;10.940;2022-11-15T18:29:38;11.80;99.90
2855;DHT22;1435;49.472;10.940;2022-11-15T18:34:42;11.90;99.90
2855;DHT22;1435;49.472;10.940;2022-11-15T18:39:43;12.00;99.90
2855;DHT22;1435;49.472;10.940;2022-11-15T18:44:45;12.00;99.90
2855;DHT22;1435;49.472;10.940;2022-11-15T18:49:48;12.10;99.90
2855;DHT22;1435;49.472;10.940;2022-11-15T18:54:50;12.00;99.90
2855;DHT22;1435;49.472;10.940;2022-11-15T18:59:52;12.00;99.90
2855;DHT22;1435;49.472;10.940;2022-11-15T19:04:55;12.00;99.90
2855;DHT22;1435;49.472;10.940;2022-11-15T19:09:57;12.00;99.90
2855;DHT22;1435;49.472;10.940;2022-11-15T19:14:59;12.00;99.90
2855;DHT22;1435;49.472;10.940;2022-11-15T19:20:02;12.00;99.90
2855;DHT22;1435;49.472;10.940;2022-11-15T19:25:04;12.00;99.90
2855;DHT22;1435;49.472;10.940;2022-11-15T19:30:08;12.00;99.90
2855;DHT22;1435;49.472;10.940;2022-11-15T19:35:12;12.00;99.90
2855;DHT22;1435;49.472;10.940;2022-11-15T19:40:14;12.00;99.90
2855;DHT22;1435;49.472;10.940;2022-11-15T19:45:16;12.00;99.90
2855;DHT22;1435;49.472;10.940;2022-11-15T19:50:19;12.00;99.90
2855;DHT22;1435;49.472;10.940;2022-11-15T19:55:21;12.00;99.90
2855;DHT22;1435;49.472;10.940;2022-11-15T20:00:22;11.80;99.90
2855;DHT22;1435;49.472;10.940;2022-11-15T20:05:26;11.80;99.90
2855;DHT22;1435;49.472;10.940;2022-11-15T20:10:28;11.70;99.90
2855;DHT22;1435;49.472;10.940;2022-11-15T20:15:29;11.60;99.90
2855;DHT22;1435;49.472;10.940;2022-11-15T20:20:32;11.60;99.90
2855;DHT22;1435;49.472;10.940;2022-11-15T20:25:35;11.70;99.90
2855;DHT22;1435;49.472;10.940;2022-11-15T20:30:37;11.60;99.90
2855;DHT22;1435;49.472;10.940;2022-11-15T20:35:40;11.50;99.90
2855;DHT22;1435;49.472;10.940;2022-11-15T20:40:44;11.50;99.90
2855;DHT22;1435;49.472;10.940;2022-11-15T20:45:47;11.50;99.90
2855;DHT22;1435;49.472;10.940;2022-11-15T20:50:51;11.30;99.90
2855;DHT22;1435;49.472;10.940;2022-11-15T21:01:54;11.40;99.90
2855;DHT22;1435;49.472;10.940;2022-11-15T21:06:57;11.50;99.90
2855;DHT22;1435;49.472;10.940;2022-11-15T21:11:59;11.40;99.90
2855;DHT22;1435;49.472;10.940;2022-11-15T21:17:13;11.40;99.90
2855;DHT22;1435;49.472;10.940;2022-11-15T21:22:17;11.40;99.90
2855;DHT22;1435;49.472;10.940;2022-11-15T21:27:18;11.40;99.90
2855;DHT22;1435;49.472;10.940;2022-11-15T21:32:20;11.40;99.90
2855;DHT22;1435;49.472;10.940;2022-11-15T21:37:23;11.40;99.90
2855;DHT22;1435;49.472;10.940;2022-11-15T21:42:25;11.40;99.90
2855;DHT22;1435;49.472;10.940;2022-11-15T21:47:27;11.30;99.90
2855;DHT22;1435;49.472;10.940;2022-11-15T21:52:30;11.30;99.90
2855;DHT22;1435;49.472;10.940;2022-11-15T21:57:32;11.20;99.90
2855;DHT22;1435;49.472;10.940;2022-11-15T22:02:33;11.20;99.90
2855;DHT22;1435;49.472;10.940;2022-11-15T22:07:37;11.30;99.90
2855;DHT22;1435;49.472;10.940;2022-11-15T22:12:38;11.20;99.90
2855;DHT22;1435;49.472;10.940;2022-11-15T22:17:40;11.20;99.90
2855;DHT22;1435;49.472;10.940;2022-11-15T22:23:01;11.10;99.90
2855;DHT22;1435;49.472;10.940;2022-11-15T22:28:03;11.00;99.90
2855;DHT22;1435;49.472;10.940;2022-11-15T22:33:05;10.90;99.90
2855;DHT22;1435;49.472;10.940;2022-11-15T22:38:09;10.90;99.90
2855;DHT22;1435;49.472;10.940;2022-11-15T22:43:12;10.90;99.90
2855;DHT22;1435;49.472;10.940;2022-11-15T22:48:14;10.70;99.90
2855;DHT22;1435;49.472;10.940;2022-11-15T22:53:18;10.70;99.90
2855;DHT22;1435;49.472;10.940;2022-11-15T22:58:20;10.60;99.90
2855;DHT22;1435;49.472;10.940;2022-11-15T23:03:23;10.60;99.90
2855;DHT22;1435;49.472;10.940;2022-11-15T23:08:27;10.60;99.90
2855;DHT22;1435;49.472;10.940;2022-11-15T23:13:30;10.60;99.90
2855;DHT22;1435;49.472;10.940;2022-11-15T23:18:33;10.60;99.90
2855;DHT22;1435;49.472;10.940;2022-11-15T23:23:36;10.50;99.90
2855;DHT22;1435;49.472;10.940;2022-11-15T23:28:38;10.50;99.90
2855;DHT22;1435;49.472;10.940;2022-11-15T23:33:40;10.40;99.90
2855;DHT22;1435;49.472;10.940;2022-11-15T23:39:01;10.40;99.90
2855;DHT22;1435;49.472;10.940;2022-11-15T23:44:04;10.30;99.90
2855;DHT22;1435;49.472;10.940;2022-11-15T23:49:06;10.10;99.90
2855;DHT22;1435;49.472;10.940;2022-11-15T23:54:09;10.00;99.90
2855;DHT22;1435;49.472;10.940;2022-11-15T23:59:11;9.80;99.90
